sensor_id;sensor_type;location;lat;lon;timestamp;pressure;altitude;pressure_sealevel;temperature;humidity
75420;BME280;63998;52.488;13.428;2022-12-07T00:00:09;100793.59;;;3.13;79.54
75420;BME280;63998;52.488;13.428;2022-12-07T00:02:35;100786.06;;;3.17;79.94
75420;BME280;63998;52.488;13.428;2022-12-07T00:05:00;100793.16;;;2.99;79.95
75420;BME280;63998;52.488;13.428;2022-12-07T00:07:28;100789.56;;;2.94;80.05
75420;BME280;63998;52.488;13.428;2022-12-07T00:09:53;100788.59;;;2.91;79.99
75420;BME280;63998;52.488;13.428;2022-12-07T00:12:18;100780.66;;;2.83;80.32
75420;BME280;63998;52.488;13.428;2022-12-07T00:14:44;100786.88;;;2.66;80.29
75420;BME280;63998;52.488;13.428;2022-12-07T00:17:09;100785.16;;;2.65;80.76
75420;BME280;63998;52.488;13.428;2022-12-07T00:19:34;100786.47;;;2.53;80.87
75420;BME280;63998;52.488;13.428;2022-12-07T00:22:00;100774.28;;;2.46;81.00
75420;BME280;63998;52.488;13.428;2022-12-07T00:24:25;100774.03;;;2.40;80.09
75420;BME280;63998;52.488;13.428;2022-12-07T00:26:50;100777.72;;;2.48;80.02
75420;BME280;63998;52.488;13.428;2022-12-07T00:29:18;100781.09;;;2.47;79.83
75420;BME280;63998;52.488;13.428;2022-12-07T00:31:44;100782.78;;;2.45;80.02
75420;BME280;63998;52.488;13.428;2022-12-07T00:34:20;100770.53;;;2.38;79.41
75420;BME280;63998;52.488;13.428;2022-12-07T00:36:45;100769.34;;;2.52;79.14
75420;BME280;63998;52.488;13.428;2022-12-07T00:39:11;100764.41;;;2.33;79.54
75420;BME280;63998;52.488;13.428;2022-12-07T00:41:36;100754.97;;;2.32;79.26
75420;BME280;63998;52.488;13.428;2022-12-07T00:44:02;100759.41;;;2.38;79.30
75420;BME280;63998;52.488;13.428;2022-12-07T00:46:30;100773.28;;;2.19;78.50
75420;BME280;63998;52.488;13.428;2022-12-07T00:48:55;100740.91;;;2.21;78.57
75420;BME280;63998;52.488;13.428;2022-12-07T00:51:24;100741.94;;;2.26;78.99
75420;BME280;63998;52.488;13.428;2022-12-07T00:53:52;100747.88;;;2.25;78.65
75420;BME280;63998;52.488;13.428;2022-12-07T00:56:25;100740.91;;;2.21;77.90
75420;BME280;63998;52.488;13.428;2022-12-07T00:58:58;100753.66;;;2.20;77.66
75420;BME280;63998;52.488;13.428;2022-12-07T01:01:25;100744.28;;;2.20;77.40
75420;BME280;63998;52.488;13.428;2022-12-07T01:03:51;100745.69;;;2.12;76.58
75420;BME280;63998;52.488;13.428;2022-12-07T01:06:21;100739.66;;;2.10;76.40
75420;BME280;63998;52.488;13.428;2022-12-07T01:08:49;100738.00;;;2.12;76.80
75420;BME280;63998;52.488;13.428;2022-12-07T01:11:17;100740.47;;;2.09;76.85
75420;BME280;63998;52.488;13.428;2022-12-07T01:13:45;100728.69;;;2.14;76.79
75420;BME280;63998;52.488;13.428;2022-12-07T01:16:14;100741.09;;;2.27;77.21
75420;BME280;63998;52.488;13.428;2022-12-07T01:18:39;100735.88;;;2.24;76.51
75420;BME280;63998;52.488;13.428;2022-12-07T01:21:11;100739.97;;;2.19;76.31
75420;BME280;63998;52.488;13.428;2022-12-07T01:23:37;100725.63;;;2.24;76.28
75420;BME280;63998;52.488;13.428;2022-12-07T01:26:10;100723.69;;;2.17;76.27
75420;BME280;63998;52.488;13.428;2022-12-07T01:28:38;100726.25;;;2.17;76.16
75420;BME280;63998;52.488;13.428;2022-12-07T01:33:31;100721.81;;;2.13;76.38
75420;BME280;63998;52.488;13.428;2022-12-07T01:36:05;100719.16;;;2.10;76.57
75420;BME280;63998;52.488;13.428;2022-12-07T01:38:32;100727.94;;;2.16;76.82
75420;BME280;63998;52.488;13.428;2022-12-07T01:40:58;100716.81;;;2.16;76.80
75420;BME280;63998;52.488;13.428;2022-12-07T01:43:26;100718.00;;;2.26;76.70
75420;BME280;63998;52.488;13.428;2022-12-07T01:45:55;100711.69;;;2.16;76.48
75420;BME280;63998;52.488;13.428;2022-12-07T01:48:27;100715.06;;;2.15;76.20
75420;BME280;63998;52.488;13.428;2022-12-07T01:50:55;100712.50;;;2.15;76.38
75420;BME280;63998;52.488;13.428;2022-12-07T01:53:24;100704.81;;;2.15;76.48
75420;BME280;63998;52.488;13.428;2022-12-07T01:55:54;100708.19;;;2.14;76.16
75420;BME280;63998;52.488;13.428;2022-12-07T01:58:22;100700.50;;;2.14;75.86
75420;BME280;63998;52.488;13.428;2022-12-07T02:00:48;100692.94;;;2.17;76.02
75420;BME280;63998;52.488;13.428;2022-12-07T02:03:19;100693.25;;;2.26;76.11
75420;BME280;63998;52.488;13.428;2022-12-07T02:05:48;100693.25;;;2.26;75.77
75420;BME280;63998;52.488;13.428;2022-12-07T02:08:14;100694.97;;;2.27;75.55
75420;BME280;63998;52.488;13.428;2022-12-07T02:10:42;100694.88;;;2.24;75.71
75420;BME280;63998;52.488;13.428;2022-12-07T02:13:18;100690.72;;;2.28;75.71
75420;BME280;63998;52.488;13.428;2022-12-07T02:19:04;100686.63;;;2.07;75.79
75420;BME280;63998;52.488;13.428;2022-12-07T02:21:58;100690.31;;;2.15;76.32
75420;BME280;63998;52.488;13.428;2022-12-07T02:30:08;100676.19;;;2.03;76.93
75420;BME280;63998;52.488;13.428;2022-12-07T02:35:20;100671.69;;;1.96;76.77
75420;BME280;63998;52.488;13.428;2022-12-07T02:38:02;100674.97;;;1.92;77.42
75420;BME280;63998;52.488;13.428;2022-12-07T02:40:43;100652.53;;;1.85;77.49
75420;BME280;63998;52.488;13.428;2022-12-07T02:43:35;100668.66;;;1.82;77.83
75420;BME280;63998;52.488;13.428;2022-12-07T02:46:19;100655.97;;;1.87;77.95
75420;BME280;63998;52.488;13.428;2022-12-07T02:48:47;100658.06;;;1.97;77.82
75420;BME280;63998;52.488;13.428;2022-12-07T02:51:13;100658.16;;;2.00;77.76
75420;BME280;63998;52.488;13.428;2022-12-07T02:53:42;100651.72;;;1.87;77.51
75420;BME280;63998;52.488;13.428;2022-12-07T03:01:31;100643.34;;;1.67;78.63
75420;BME280;63998;52.488;13.428;2022-12-07T03:04:15;100640.69;;;1.64;78.91
75420;BME280;63998;52.488;13.428;2022-12-07T03:06:56;100633.13;;;1.67;79.26
75420;BME280;63998;52.488;13.428;2022-12-07T03:09:41;100638.06;;;1.63;79.21
75420;BME280;63998;52.488;13.428;2022-12-07T03:12:20;100636.38;;;1.63;79.40
75420;BME280;63998;52.488;13.428;2022-12-07T03:15:02;100631.25;;;1.63;79.56
75420;BME280;63998;52.488;13.428;2022-12-07T03:17:36;100623.53;;;1.62;79.69
75420;BME280;63998;52.488;13.428;2022-12-07T03:20:06;100622.56;;;1.58;80.01
75420;BME280;63998;52.488;13.428;2022-12-07T03:22:34;100620.19;;;1.64;79.79
75420;BME280;63998;52.488;13.428;2022-12-07T03:25:04;100614.38;;;1.68;80.30
75420;BME280;63998;52.488;13.428;2022-12-07T03:27:36;100607.63;;;1.70;80.04
75420;BME280;63998;52.488;13.428;2022-12-07T03:30:06;100609.59;;;1.54;80.05
75420;BME280;63998;52.488;13.428;2022-12-07T03:35:26;100596.72;;;1.52;80.13
75420;BME280;63998;52.488;13.428;2022-12-07T03:42:58;100577.88;;;1.50;80.84
75420;BME280;63998;52.488;13.428;2022-12-07T03:45:38;100567.75;;;1.53;80.50
75420;BME280;63998;52.488;13.428;2022-12-07T03:48:09;100571.38;;;1.58;80.60
75420;BME280;63998;52.488;13.428;2022-12-07T03:50:53;100566.56;;;1.67;80.77
75420;BME280;63998;52.488;13.428;2022-12-07T03:53:35;100555.03;;;1.55;80.66
75420;BME280;63998;52.488;13.428;2022-12-07T03:56:02;100557.66;;;1.56;80.67
75420;BME280;63998;52.488;13.428;2022-12-07T03:58:28;100557.66;;;1.56;80.84
75420;BME280;63998;52.488;13.428;2022-12-07T04:00:54;100543.09;;;1.55;81.56
75420;BME280;63998;52.488;13.428;2022-12-07T04:03:22;100552.47;;;1.55;81.66
75420;BME280;63998;52.488;13.428;2022-12-07T04:05:48;100538.59;;;1.48;81.42
75420;BME280;63998;52.488;13.428;2022-12-07T04:08:13;100551.16;;;1.42;81.94
75420;BME280;63998;52.488;13.428;2022-12-07T04:10:39;100543.38;;;1.39;82.12
75420;BME280;63998;52.488;13.428;2022-12-07T04:13:04;100545.88;;;1.37;82.30
75420;BME280;63998;52.488;13.428;2022-12-07T04:15:30;100539.81;;;1.34;83.00
75420;BME280;63998;52.488;13.428;2022-12-07T04:17:55;100542.06;;;1.26;83.13
75420;BME280;63998;52.488;13.428;2022-12-07T04:20:20;100534.34;;;1.25;83.00
75420;BME280;63998;52.488;13.428;2022-12-07T04:22:48;100521.59;;;1.26;83.67
75420;BME280;63998;52.488;13.428;2022-12-07T04:25:14;100532.06;;;1.32;83.63
75420;BME280;63998;52.488;13.428;2022-12-07T04:27:41;100524.44;;;1.34;83.72
75420;BME280;63998;52.488;13.428;2022-12-07T04:30:07;100531.19;;;1.32;83.93
75420;BME280;63998;52.488;13.428;2022-12-07T04:32:33;100530.31;;;1.31;83.94
75420;BME280;63998;52.488;13.428;2022-12-07T04:34:58;100522.47;;;1.27;83.93
75420;BME280;63998;52.488;13.428;2022-12-07T04:37:24;100514.09;;;1.31;84.50
75420;BME280;63998;52.488;13.428;2022-12-07T04:39:49;100513.13;;;1.27;84.37
75420;BME280;63998;52.488;13.428;2022-12-07T04:42:14;100512.34;;;1.30;84.82
75420;BME280;63998;52.488;13.428;2022-12-07T04:44:42;100506.44;;;1.31;84.49
75420;BME280;63998;52.488;13.428;2022-12-07T04:47:07;100499.38;;;1.25;85.22
75420;BME280;63998;52.488;13.428;2022-12-07T04:49:35;100496.88;;;1.27;85.22
75420;BME280;63998;52.488;13.428;2022-12-07T04:52:00;100495.97;;;1.25;85.58
75420;BME280;63998;52.488;13.428;2022-12-07T04:54:31;100502.75;;;1.24;85.71
75420;BME280;63998;52.488;13.428;2022-12-07T04:56:56;100494.22;;;1.24;85.99
75420;BME280;63998;52.488;13.428;2022-12-07T04:59:21;100500.00;;;1.18;86.31
75420;BME280;63998;52.488;13.428;2022-12-07T05:01:47;100489.91;;;1.21;86.21
75420;BME280;63998;52.488;13.428;2022-12-07T05:04:14;100496.88;;;1.27;86.70
75420;BME280;63998;52.488;13.428;2022-12-07T05:06:41;100488.63;;;1.34;86.47
75420;BME280;63998;52.488;13.428;2022-12-07T05:09:07;100484.38;;;1.34;86.82
75420;BME280;63998;52.488;13.428;2022-12-07T05:11:34;100496.78;;;1.24;86.75
75420;BME280;63998;52.488;13.428;2022-12-07T05:14:20;100480.59;;;1.23;86.70
75420;BME280;63998;52.488;13.428;2022-12-07T05:16:50;100495.25;;;1.29;86.79
75420;BME280;63998;52.488;13.428;2022-12-07T05:19:19;100484.91;;;1.26;86.93
75420;BME280;63998;52.488;13.428;2022-12-07T05:21:44;100482.34;;;1.26;87.12
75420;BME280;63998;52.488;13.428;2022-12-07T05:24:16;100481.88;;;1.36;87.51
75420;BME280;63998;52.488;13.428;2022-12-07T05:26:42;100470.00;;;1.38;86.95
75420;BME280;63998;52.488;13.428;2022-12-07T05:29:11;100479.28;;;1.34;87.03
75420;BME280;63998;52.488;13.428;2022-12-07T05:31:42;100473.47;;;1.40;87.44
75420;BME280;63998;52.488;13.428;2022-12-07T05:34:08;100475.34;;;1.44;87.13
75420;BME280;63998;52.488;13.428;2022-12-07T05:36:36;100477.19;;;1.48;87.58
75420;BME280;63998;52.488;13.428;2022-12-07T05:39:04;100471.34;;;1.52;87.50
75420;BME280;63998;52.488;13.428;2022-12-07T05:41:29;100464.56;;;1.54;87.47
75420;BME280;63998;52.488;13.428;2022-12-07T05:44:14;100466.44;;;1.58;87.32
75420;BME280;63998;52.488;13.428;2022-12-07T05:46:41;100464.06;;;1.64;87.43
75420;BME280;63998;52.488;13.428;2022-12-07T05:49:07;100453.16;;;1.70;87.66
75420;BME280;63998;52.488;13.428;2022-12-07T05:51:32;100453.97;;;1.69;87.42
75420;BME280;63998;52.488;13.428;2022-12-07T05:53:57;100462.53;;;1.69;87.58
75420;BME280;63998;52.488;13.428;2022-12-07T05:56:23;100462.72;;;1.75;87.75
75420;BME280;63998;52.488;13.428;2022-12-07T05:58:51;100454.44;;;1.83;88.03
75420;BME280;63998;52.488;13.428;2022-12-07T06:01:38;100443.44;;;1.85;87.45
75420;BME280;63998;52.488;13.428;2022-12-07T06:04:05;100449.50;;;1.89;87.82
75420;BME280;63998;52.488;13.428;2022-12-07T06:06:30;100445.25;;;1.89;87.86
75420;BME280;63998;52.488;13.428;2022-12-07T06:08:58;100425.84;;;1.96;87.75
75420;BME280;63998;52.488;13.428;2022-12-07T06:11:26;100429.38;;;2.01;87.52
75420;BME280;63998;52.488;13.428;2022-12-07T06:14:12;100424.38;;;2.04;87.83
75420;BME280;63998;52.488;13.428;2022-12-07T06:16:40;100417.78;;;2.12;87.35
75420;BME280;63998;52.488;13.428;2022-12-07T06:19:05;100421.38;;;2.17;87.71
75420;BME280;63998;52.488;13.428;2022-12-07T06:21:30;100426.59;;;2.20;87.29
75420;BME280;63998;52.488;13.428;2022-12-07T06:23:56;100408.59;;;2.19;87.10
75420;BME280;63998;52.488;13.428;2022-12-07T06:26:21;100410.47;;;2.24;87.08
75420;BME280;63998;52.488;13.428;2022-12-07T06:28:46;100419.72;;;2.19;87.21
75420;BME280;63998;52.488;13.428;2022-12-07T06:31:12;100424.75;;;2.16;87.21
75420;BME280;63998;52.488;13.428;2022-12-07T06:33:37;100407.72;;;2.18;87.43
75420;BME280;63998;52.488;13.428;2022-12-07T06:36:05;100419.53;;;2.13;87.40
75420;BME280;63998;52.488;13.428;2022-12-07T06:38:35;100399.22;;;2.19;87.46
75420;BME280;63998;52.488;13.428;2022-12-07T06:41:03;100403.53;;;2.20;87.59
75420;BME280;63998;52.488;13.428;2022-12-07T06:43:29;100416.59;;;2.29;87.61
75420;BME280;63998;52.488;13.428;2022-12-07T06:45:54;100415.13;;;2.37;87.37
75420;BME280;63998;52.488;13.428;2022-12-07T06:48:19;100413.59;;;2.42;87.05
75420;BME280;63998;52.488;13.428;2022-12-07T06:50:45;100418.84;;;2.47;87.26
75420;BME280;63998;52.488;13.428;2022-12-07T06:53:11;100411.22;;;2.50;87.07
75420;BME280;63998;52.488;13.428;2022-12-07T06:55:37;100416.41;;;2.51;87.17
75420;BME280;63998;52.488;13.428;2022-12-07T06:58:02;100415.50;;;2.49;86.86
75420;BME280;63998;52.488;13.428;2022-12-07T07:00:28;100413.94;;;2.55;86.80
75420;BME280;63998;52.488;13.428;2022-12-07T07:02:56;100405.59;;;2.62;86.50
75420;BME280;63998;52.488;13.428;2022-12-07T07:05:21;100402.38;;;2.69;86.94
75420;BME280;63998;52.488;13.428;2022-12-07T07:07:48;100417.00;;;2.73;86.75
75420;BME280;63998;52.488;13.428;2022-12-07T07:10:16;100400.75;;;2.71;86.47
75420;BME280;63998;52.488;13.428;2022-12-07T07:12:41;100399.94;;;2.73;86.63
75420;BME280;63998;52.488;13.428;2022-12-07T07:15:07;100399.19;;;2.77;86.53
75420;BME280;63998;52.488;13.428;2022-12-07T07:17:34;100399.38;;;2.83;86.70
75420;BME280;63998;52.488;13.428;2022-12-07T07:20:00;100402.81;;;2.84;86.32
75420;BME280;63998;52.488;13.428;2022-12-07T07:22:25;100422.56;;;2.88;86.36
75420;BME280;63998;52.488;13.428;2022-12-07T07:24:50;100408.19;;;2.93;86.35
75420;BME280;63998;52.488;13.428;2022-12-07T07:27:15;100405.72;;;2.96;85.99
75420;BME280;63998;52.488;13.428;2022-12-07T07:29:41;100408.44;;;3.02;85.98
75420;BME280;63998;52.488;13.428;2022-12-07T07:32:09;100412.00;;;3.07;85.73
75420;BME280;63998;52.488;13.428;2022-12-07T07:34:34;100408.59;;;3.08;85.48
75420;BME280;63998;52.488;13.428;2022-12-07T07:37:00;100406.91;;;3.10;85.18
75420;BME280;63998;52.488;13.428;2022-12-07T07:39:26;100398.41;;;3.11;84.94
75420;BME280;63998;52.488;13.428;2022-12-07T07:41:51;100401.06;;;3.14;84.27
75420;BME280;63998;52.488;13.428;2022-12-07T07:44:16;100400.22;;;3.15;83.64
75420;BME280;63998;52.488;13.428;2022-12-07T07:46:44;100400.38;;;3.21;83.34
75420;BME280;63998;52.488;13.428;2022-12-07T07:49:10;100405.13;;;3.39;83.75
75420;BME280;63998;52.488;13.428;2022-12-07T07:51:36;100419.28;;;3.58;83.75
75420;BME280;63998;52.488;13.428;2022-12-07T07:54:02;100405.56;;;3.56;82.65
75420;BME280;63998;52.488;13.428;2022-12-07T07:56:28;100416.44;;;3.46;82.26
75420;BME280;63998;52.488;13.428;2022-12-07T07:58:53;100413.41;;;3.29;82.09
75420;BME280;63998;52.488;13.428;2022-12-07T08:01:19;100408.41;;;3.34;82.31
75420;BME280;63998;52.488;13.428;2022-12-07T08:03:48;100414.50;;;3.39;82.20
75420;BME280;63998;52.488;13.428;2022-12-07T08:06:14;100411.94;;;3.39;82.12
75420;BME280;63998;52.488;13.428;2022-12-07T08:08:39;100425.69;;;3.41;82.29
75420;BME280;63998;52.488;13.428;2022-12-07T08:11:08;100422.94;;;3.33;81.75
75420;BME280;63998;52.488;13.428;2022-12-07T08:13:37;100413.53;;;3.34;81.86
75420;BME280;63998;52.488;13.428;2022-12-07T08:16:08;100419.66;;;3.39;81.55
75420;BME280;63998;52.488;13.428;2022-12-07T08:18:35;100419.72;;;3.42;81.38
75420;BME280;63998;52.488;13.428;2022-12-07T08:21:03;100436.09;;;3.47;81.13
75420;BME280;63998;52.488;13.428;2022-12-07T08:23:29;100413.88;;;3.47;80.97
75420;BME280;63998;52.488;13.428;2022-12-07T08:26:01;100424.94;;;3.45;80.78
75420;BME280;63998;52.488;13.428;2022-12-07T08:28:29;100412.13;;;3.46;80.37
75420;BME280;63998;52.488;13.428;2022-12-07T08:31:02;100420.88;;;3.53;80.50
75420;BME280;63998;52.488;13.428;2022-12-07T08:33:27;100411.59;;;3.58;80.28
75420;BME280;63998;52.488;13.428;2022-12-07T08:35:53;100440.03;;;3.66;80.10
75420;BME280;63998;52.488;13.428;2022-12-07T08:38:21;100422.00;;;3.64;79.37
75420;BME280;63998;52.488;13.428;2022-12-07T08:40:58;100430.53;;;3.63;77.46
75420;BME280;63998;52.488;13.428;2022-12-07T08:43:26;100427.06;;;3.61;77.48
75420;BME280;63998;52.488;13.428;2022-12-07T08:46:17;100422.91;;;3.66;77.16
75420;BME280;63998;52.488;13.428;2022-12-07T08:48:53;100426.47;;;3.73;76.62
75420;BME280;63998;52.488;13.428;2022-12-07T08:51:22;100446.31;;;3.78;76.31
75420;BME280;63998;52.488;13.428;2022-12-07T08:53:49;100421.44;;;3.76;74.01
75420;BME280;63998;52.488;13.428;2022-12-07T08:56:15;100431.00;;;3.81;72.96
75420;BME280;63998;52.488;13.428;2022-12-07T08:58:41;100468.41;;;3.70;72.33
75420;BME280;63998;52.488;13.428;2022-12-07T09:01:09;100441.19;;;3.78;72.07
75420;BME280;63998;52.488;13.428;2022-12-07T09:03:37;100447.84;;;3.70;72.00
75420;BME280;63998;52.488;13.428;2022-12-07T09:06:02;100444.41;;;3.71;71.77
75420;BME280;63998;52.488;13.428;2022-12-07T09:08:41;100442.06;;;3.79;72.24
75420;BME280;63998;52.488;13.428;2022-12-07T09:11:10;100444.50;;;3.74;71.44
75420;BME280;63998;52.488;13.428;2022-12-07T09:13:36;100441.03;;;3.72;70.87
75420;BME280;63998;52.488;13.428;2022-12-07T09:16:01;100453.13;;;3.76;70.75
75420;BME280;63998;52.488;13.428;2022-12-07T09:18:29;100451.28;;;3.72;70.28
75420;BME280;63998;52.488;13.428;2022-12-07T09:20:55;100485.38;;;3.65;69.31
75420;BME280;63998;52.488;13.428;2022-12-07T09:23:21;100451.16;;;3.66;69.83
75420;BME280;63998;52.488;13.428;2022-12-07T09:25:46;100462.38;;;3.70;69.92
75420;BME280;63998;52.488;13.428;2022-12-07T09:28:12;100459.91;;;3.74;69.80
75420;BME280;63998;52.488;13.428;2022-12-07T09:30:37;100460.78;;;3.75;69.55
75420;BME280;63998;52.488;13.428;2022-12-07T09:33:03;100465.28;;;3.83;69.93
75420;BME280;63998;52.488;13.428;2022-12-07T09:35:28;100470.41;;;3.83;69.54
75420;BME280;63998;52.488;13.428;2022-12-07T09:37:54;100461.94;;;3.87;69.65
75420;BME280;63998;52.488;13.428;2022-12-07T09:40:21;100460.00;;;3.77;69.76
75420;BME280;63998;52.488;13.428;2022-12-07T09:42:50;100461.66;;;3.75;70.00
75420;BME280;63998;52.488;13.428;2022-12-07T09:45:25;100465.13;;;3.77;70.21
75420;BME280;63998;52.488;13.428;2022-12-07T09:47:52;100471.94;;;3.75;70.30
75420;BME280;63998;52.488;13.428;2022-12-07T09:50:23;100477.06;;;3.75;70.43
75420;BME280;63998;52.488;13.428;2022-12-07T09:52:52;100480.38;;;3.71;69.82
75420;BME280;63998;52.488;13.428;2022-12-07T09:55:29;100470.66;;;3.58;69.18
75420;BME280;63998;52.488;13.428;2022-12-07T09:57:57;100486.94;;;3.60;69.73
75420;BME280;63998;52.488;13.428;2022-12-07T10:00:24;100478.41;;;3.61;69.27
75420;BME280;63998;52.488;13.428;2022-12-07T10:02:55;100488.44;;;3.52;68.95
75420;BME280;63998;52.488;13.428;2022-12-07T10:05:27;100480.66;;;3.49;68.85
75420;BME280;63998;52.488;13.428;2022-12-07T10:07:53;100478.19;;;3.52;69.16
75420;BME280;63998;52.488;13.428;2022-12-07T10:10:39;100486.88;;;3.57;69.50
75420;BME280;63998;52.488;13.428;2022-12-07T10:18:29;100478.34;;;3.58;70.47
75420;BME280;63998;52.488;13.428;2022-12-07T10:21:17;100481.81;;;3.60;70.36
75420;BME280;63998;52.488;13.428;2022-12-07T10:26:35;100487.63;;;3.53;69.97
75420;BME280;63998;52.488;13.428;2022-12-07T10:29:16;100495.25;;;3.50;70.20
75420;BME280;63998;52.488;13.428;2022-12-07T10:31:43;100485.16;;;3.56;70.98
75420;BME280;63998;52.488;13.428;2022-12-07T10:36:53;100471.34;;;3.52;71.04
75420;BME280;63998;52.488;13.428;2022-12-07T10:39:21;100469.47;;;3.45;71.06
75420;BME280;63998;52.488;13.428;2022-12-07T10:44:23;100469.97;;;3.65;71.63
75420;BME280;63998;52.488;13.428;2022-12-07T10:58:01;100466.56;;;3.66;71.42
75420;BME280;63998;52.488;13.428;2022-12-07T11:00:42;100468.41;;;3.70;71.51
75420;BME280;63998;52.488;13.428;2022-12-07T11:03:34;100466.03;;;3.79;71.51
75420;BME280;63998;52.488;13.428;2022-12-07T11:17:35;100478.88;;;3.79;71.67
75420;BME280;63998;52.488;13.428;2022-12-07T11:21:09;100477.22;;;3.81;71.89
75420;BME280;63998;52.488;13.428;2022-12-07T11:33:42;100458.06;;;4.03;72.54
75420;BME280;63998;52.488;13.428;2022-12-07T11:36:28;100462.44;;;4.09;71.68
75420;BME280;63998;52.488;13.428;2022-12-07T11:39:02;100447.19;;;4.15;72.00
75420;BME280;63998;52.488;13.428;2022-12-07T11:41:39;100449.72;;;4.13;71.31
75420;BME280;63998;52.488;13.428;2022-12-07T11:44:11;100443.88;;;4.19;71.32
75420;BME280;63998;52.488;13.428;2022-12-07T11:46:53;100451.22;;;4.04;70.83
75420;BME280;63998;52.488;13.428;2022-12-07T11:49:43;100455.25;;;3.92;71.98
75420;BME280;63998;52.488;13.428;2022-12-07T11:52:18;100445.56;;;3.82;72.04
75420;BME280;63998;52.488;13.428;2022-12-07T11:54:46;100452.13;;;3.70;72.31
75420;BME280;63998;52.488;13.428;2022-12-07T11:57:20;100456.22;;;3.63;72.67
75420;BME280;63998;52.488;13.428;2022-12-07T11:59:52;100453.41;;;3.54;72.81
75420;BME280;63998;52.488;13.428;2022-12-07T12:02:28;100441.53;;;3.59;73.23
75420;BME280;63998;52.488;13.428;2022-12-07T12:05:20;100439.38;;;3.74;73.55
75420;BME280;63998;52.488;13.428;2022-12-07T12:07:55;100458.34;;;3.79;73.56
75420;BME280;63998;52.488;13.428;2022-12-07T12:13:19;100428.00;;;4.01;72.87
75420;BME280;63998;52.488;13.428;2022-12-07T12:15:55;100427.44;;;4.12;72.44
75420;BME280;63998;52.488;13.428;2022-12-07T12:21:06;100432.25;;;3.98;72.74
75420;BME280;63998;52.488;13.428;2022-12-07T12:23:39;100423.66;;;3.98;72.42
75420;BME280;63998;52.488;13.428;2022-12-07T12:26:13;100432.13;;;3.92;72.64
75420;BME280;63998;52.488;13.428;2022-12-07T12:28:54;100434.75;;;3.95;72.50
75420;BME280;63998;52.488;13.428;2022-12-07T12:33:51;100427.94;;;3.97;72.14
75420;BME280;63998;52.488;13.428;2022-12-07T12:39:08;100419.47;;;4.02;72.54
75420;BME280;63998;52.488;13.428;2022-12-07T12:44:02;100419.28;;;3.92;73.11
75420;BME280;63998;52.488;13.428;2022-12-07T12:51:56;100424.88;;;4.14;72.44
75420;BME280;63998;52.488;13.428;2022-12-07T12:54:29;100422.88;;;4.01;72.35
75420;BME280;63998;52.488;13.428;2022-12-07T12:59:34;100400.78;;;4.07;72.70
75420;BME280;63998;52.488;13.428;2022-12-07T13:02:27;100409.34;;;4.08;73.29
75420;BME280;63998;52.488;13.428;2022-12-07T13:10:24;100420.72;;;4.19;73.33
75420;BME280;63998;52.488;13.428;2022-12-07T13:13:00;100410.38;;;4.16;72.90
75420;BME280;63998;52.488;13.428;2022-12-07T13:26:09;100408.78;;;4.22;72.14
75420;BME280;63998;52.488;13.428;2022-12-07T13:28:40;100401.09;;;4.22;72.51
75420;BME280;63998;52.488;13.428;2022-12-07T13:31:23;100408.00;;;4.25;72.57
75420;BME280;63998;52.488;13.428;2022-12-07T13:33:50;100405.34;;;4.22;72.46
75420;BME280;63998;52.488;13.428;2022-12-07T13:36:23;100395.63;;;4.09;72.34
75420;BME280;63998;52.488;13.428;2022-12-07T13:38:58;100404.47;;;4.20;72.70
75420;BME280;63998;52.488;13.428;2022-12-07T13:41:28;100410.66;;;4.28;72.60
75420;BME280;63998;52.488;13.428;2022-12-07T13:43:58;100420.94;;;4.28;72.60
75420;BME280;63998;52.488;13.428;2022-12-07T13:49:24;100401.00;;;4.18;72.27
75420;BME280;63998;52.488;13.428;2022-12-07T13:52:17;100411.22;;;4.15;72.87
75420;BME280;63998;52.488;13.428;2022-12-07T13:55:27;100404.38;;;4.15;72.65
75420;BME280;63998;52.488;13.428;2022-12-07T13:57:35;100409.66;;;4.23;72.67
75420;BME280;63998;52.488;13.428;2022-12-07T14:00:03;100405.31;;;4.19;72.72
75420;BME280;63998;52.488;13.428;2022-12-07T14:02:32;100425.03;;;4.20;72.12
75420;BME280;63998;52.488;13.428;2022-12-07T14:07:33;100412.59;;;4.01;72.69
75420;BME280;63998;52.488;13.428;2022-12-07T14:10:04;100414.25;;;3.98;73.12
75420;BME280;63998;52.488;13.428;2022-12-07T14:12:32;100414.25;;;3.98;73.17
75420;BME280;63998;52.488;13.428;2022-12-07T14:14:59;100416.78;;;3.97;73.04
75420;BME280;63998;52.488;13.428;2022-12-07T14:17:27;100404.75;;;3.94;72.96
75420;BME280;63998;52.488;13.428;2022-12-07T14:19:59;100417.59;;;3.94;73.16
75420;BME280;63998;52.488;13.428;2022-12-07T14:25:19;100425.41;;;3.99;72.64
75420;BME280;63998;52.488;13.428;2022-12-07T14:27:57;100407.34;;;3.94;72.96
75420;BME280;63998;52.488;13.428;2022-12-07T14:30:30;100413.31;;;3.93;73.37
75420;BME280;63998;52.488;13.428;2022-12-07T14:33:01;100415.88;;;3.93;73.50
75420;BME280;63998;52.488;13.428;2022-12-07T14:35:32;100395.44;;;4.00;73.36
75420;BME280;63998;52.488;13.428;2022-12-07T14:37:58;100407.34;;;3.94;73.16
75420;BME280;63998;52.488;13.428;2022-12-07T14:40:28;100405.44;;;3.87;73.73
75420;BME280;63998;52.488;13.428;2022-12-07T14:43:00;100390.81;;;3.85;74.05
75420;BME280;63998;52.488;13.428;2022-12-07T14:45:27;100396.69;;;3.79;74.28
75420;BME280;63998;52.488;13.428;2022-12-07T14:47:54;100391.50;;;3.78;74.55
75420;BME280;63998;52.488;13.428;2022-12-07T14:50:20;100389.72;;;3.75;74.40
75420;BME280;63998;52.488;13.428;2022-12-07T14:52:51;100389.38;;;3.60;74.84
75420;BME280;63998;52.488;13.428;2022-12-07T14:55:28;100396.22;;;3.61;74.80
75420;BME280;63998;52.488;13.428;2022-12-07T14:57:54;100397.91;;;3.59;75.08
75420;BME280;63998;52.488;13.428;2022-12-07T15:00:22;100394.38;;;3.54;75.21
75420;BME280;63998;52.488;13.428;2022-12-07T15:02:48;100390.81;;;3.49;75.50